sensor_id;sensor_type;location;lat;lon;timestamp;pressure;altitude;pressure_sealevel;temperature;humidity
46412;BME280;32113;42.012;24.870;2023-02-01T00:01:05;99051.03;;;5.54;46.45
46412;BME280;32113;42.012;24.870;2023-02-01T00:03:31;99058.81;;;5.71;45.72
46412;BME280;32113;42.012;24.870;2023-02-01T00:05:56;99066.44;;;5.71;45.38
46412;BME280;32113;42.012;24.870;2023-02-01T00:08:22;99072.38;;;5.70;45.42
46412;BME280;32113;42.012;24.870;2023-02-01T00:10:48;99071.44;;;5.62;45.58
46412;BME280;32113;42.012;24.870;2023-02-01T00:13:13;99070.63;;;5.64;46.07
46412;BME280;32113;42.012;24.870;2023-02-01T00:15:38;99079.97;;;5.64;45.28
46412;BME280;32113;42.012;24.870;2023-02-01T00:18:03;99092.69;;;5.62;45.50
46412;BME280;32113;42.012;24.870;2023-02-01T00:20:29;99085.75;;;5.49;46.10
46412;BME280;32113;42.012;24.870;2023-02-01T00:22:54;99095.94;;;5.50;46.31
46412;BME280;32113;42.012;24.870;2023-02-01T00:25:19;99096.00;;;5.55;45.86
46412;BME280;32113;42.012;24.870;2023-02-01T00:27:48;99083.25;;;5.55;45.92
46412;BME280;32113;42.012;24.870;2023-02-01T00:30:13;99089.16;;;5.49;45.36
46412;BME280;32113;42.012;24.870;2023-02-01T00:32:38;99081.63;;;5.62;45.73
46412;BME280;32113;42.012;24.870;2023-02-01T00:35:04;99086.72;;;5.62;45.32
46412;BME280;32113;42.012;24.870;2023-02-01T00:37:29;99088.47;;;5.63;45.08
46412;BME280;32113;42.012;24.870;2023-02-01T00:39:54;99091.88;;;5.67;45.58
46412;BME280;32113;42.012;24.870;2023-02-01T00:42:20;99075.00;;;5.76;44.81
46412;BME280;32113;42.012;24.870;2023-02-01T00:44:46;99083.41;;;5.68;44.73
46412;BME280;32113;42.012;24.870;2023-02-01T00:47:11;99077.41;;;5.62;45.27
46412;BME280;32113;42.012;24.870;2023-02-01T00:49:37;99090.22;;;5.72;45.00
46412;BME280;32113;42.012;24.870;2023-02-01T00:52:02;99085.09;;;5.65;44.81
46412;BME280;32113;42.012;24.870;2023-02-01T00:54:27;99086.78;;;5.65;44.63
46412;BME280;32113;42.012;24.870;2023-02-01T00:56:53;99082.50;;;5.62;45.31
46412;BME280;32113;42.012;24.870;2023-02-01T00:59:18;99090.09;;;5.59;44.59
46412;BME280;32113;42.012;24.870;2023-02-01T01:01:43;99092.63;;;5.56;44.82
46412;BME280;32113;42.012;24.870;2023-02-01T01:04:08;99086.59;;;5.48;44.51
46412;BME280;32113;42.012;24.870;2023-02-01T01:06:34;99083.16;;;5.44;45.15
46412;BME280;32113;42.012;24.870;2023-02-01T01:09:01;99084.97;;;5.55;45.25
46412;BME280;32113;42.012;24.870;2023-02-01T01:11:27;99093.56;;;5.66;45.23
46412;BME280;32113;42.012;24.870;2023-02-01T01:13:54;99093.47;;;5.58;44.80
46412;BME280;32113;42.012;24.870;2023-02-01T01:16:20;99091.88;;;5.67;45.07
46412;BME280;32113;42.012;24.870;2023-02-01T01:18:46;99084.97;;;5.55;45.31
46412;BME280;32113;42.012;24.870;2023-02-01T01:21:12;99090.19;;;5.65;44.92
46412;BME280;32113;42.012;24.870;2023-02-01T01:23:37;99083.44;;;5.74;44.88
46412;BME280;32113;42.012;24.870;2023-02-01T01:26:06;99083.53;;;5.83;44.65
46412;BME280;32113;42.012;24.870;2023-02-01T01:28:32;99081.88;;;5.85;44.54
46412;BME280;32113;42.012;24.870;2023-02-01T01:30:57;99095.25;;;5.67;45.03
46412;BME280;32113;42.012;24.870;2023-02-01T01:33:23;99090.16;;;5.67;44.73
46412;BME280;32113;42.012;24.870;2023-02-01T01:35:48;99094.34;;;5.60;44.66
46412;BME280;32113;42.012;24.870;2023-02-01T01:38:13;99093.38;;;5.49;44.94
46412;BME280;32113;42.012;24.870;2023-02-01T01:40:38;99093.41;;;5.50;44.97
46412;BME280;32113;42.012;24.870;2023-02-01T01:43:09;99093.38;;;5.49;45.15
46412;BME280;32113;42.012;24.870;2023-02-01T01:45:37;99095.03;;;5.44;44.69
46412;BME280;32113;42.012;24.870;2023-02-01T01:48:07;99096.66;;;5.38;45.19
46412;BME280;32113;42.012;24.870;2023-02-01T01:50:48;99090.53;;;5.22;45.59
46412;BME280;32113;42.012;24.870;2023-02-01T01:53:19;99092.22;;;5.19;44.99
46412;BME280;32113;42.012;24.870;2023-02-01T01:55:45;99087.13;;;5.20;45.39
46412;BME280;32113;42.012;24.870;2023-02-01T01:58:12;99087.97;;;5.21;45.32
46412;BME280;32113;42.012;24.870;2023-02-01T02:00:39;99087.13;;;5.19;45.99
46412;BME280;32113;42.012;24.870;2023-02-01T02:03:11;99095.75;;;5.32;45.62
46412;BME280;32113;42.012;24.870;2023-02-01T02:05:39;99083.13;;;5.41;44.76
46412;BME280;32113;42.012;24.870;2023-02-01T02:08:04;99092.47;;;5.44;45.49
46412;BME280;32113;42.012;24.870;2023-02-01T02:10:29;99088.06;;;5.29;45.25
46412;BME280;32113;42.012;24.870;2023-02-01T02:13:14;99098.28;;;5.32;44.98
46412;BME280;32113;42.012;24.870;2023-02-01T02:18:30;99090.47;;;5.16;44.95
46412;BME280;32113;42.012;24.870;2023-02-01T02:31:15;99096.38;;;5.12;46.21
46412;BME280;32113;42.012;24.870;2023-02-01T02:36:35;99096.53;;;5.28;45.42
46412;BME280;32113;42.012;24.870;2023-02-01T02:41:33;99093.16;;;5.29;45.29
46412;BME280;32113;42.012;24.870;2023-02-01T02:44:53;99091.53;;;5.35;45.37
46412;BME280;32113;42.012;24.870;2023-02-01T02:50:05;99089.66;;;5.20;45.47
46412;BME280;32113;42.012;24.870;2023-02-01T02:52:59;99100.81;;;5.30;45.19
46412;BME280;32113;42.012;24.870;2023-02-01T02:55:46;99094.06;;;5.34;45.72
46412;BME280;32113;42.012;24.870;2023-02-01T02:58:11;99092.31;;;5.28;45.43
46412;BME280;32113;42.012;24.870;2023-02-01T03:00:57;99101.69;;;5.32;45.08
46412;BME280;32113;42.012;24.870;2023-02-01T03:03:41;99095.06;;;5.45;45.16
46412;BME280;32113;42.012;24.870;2023-02-01T03:06:26;99088.94;;;5.31;44.79
46412;BME280;32113;42.012;24.870;2023-02-01T03:08:53;99094.75;;;5.22;44.93
46412;BME280;32113;42.012;24.870;2023-02-01T03:11:22;99096.59;;;5.32;45.27
46412;BME280;32113;42.012;24.870;2023-02-01T03:13:52;99092.41;;;5.39;44.23
46412;BME280;32113;42.012;24.870;2023-02-01T03:18:57;99096.88;;;5.57;45.20
46412;BME280;32113;42.012;24.870;2023-02-01T03:21:29;99096.69;;;5.40;45.48
46412;BME280;32113;42.012;24.870;2023-02-01T03:23:58;99099.34;;;5.49;45.68
46412;BME280;32113;42.012;24.870;2023-02-01T03:26:25;99105.28;;;5.51;45.82
46412;BME280;32113;42.012;24.870;2023-02-01T03:28:55;99104.50;;;5.56;46.12
46412;BME280;32113;42.012;24.870;2023-02-01T03:31:22;99106.19;;;5.57;46.23
46412;BME280;32113;42.012;24.870;2023-02-01T03:33:47;99104.41;;;5.48;46.53
46412;BME280;32113;42.012;24.870;2023-02-01T03:36:15;99112.75;;;5.36;47.07
46412;BME280;32113;42.012;24.870;2023-02-01T03:43:48;99112.25;;;4.95;48.09
46412;BME280;32113;42.012;24.870;2023-02-01T03:46:21;99109.69;;;4.92;48.62
46412;BME280;32113;42.012;24.870;2023-02-01T03:48:47;99118.31;;;5.05;48.43
46412;BME280;32113;42.012;24.870;2023-02-01T03:51:14;99110.00;;;5.17;48.40
46412;BME280;32113;42.012;24.870;2023-02-01T03:53:41;99112.47;;;5.14;48.35
46412;BME280;32113;42.012;24.870;2023-02-01T03:56:08;99110.50;;;4.91;48.86
46412;BME280;32113;42.012;24.870;2023-02-01T03:58:36;99113.88;;;4.90;48.70
46412;BME280;32113;42.012;24.870;2023-02-01T04:01:02;99119.13;;;5.03;49.03
46412;BME280;32113;42.012;24.870;2023-02-01T04:03:27;99119.28;;;5.15;48.88
46412;BME280;32113;42.012;24.870;2023-02-01T04:05:53;99121.78;;;5.12;48.52
46412;BME280;32113;42.012;24.870;2023-02-01T04:08:21;99116.59;;;5.03;48.70
46412;BME280;32113;42.012;24.870;2023-02-01T04:10:46;99120.81;;;5.02;48.36
46412;BME280;32113;42.012;24.870;2023-02-01T04:13:12;99131.06;;;5.07;48.47
46412;BME280;32113;42.012;24.870;2023-02-01T04:15:37;99120.72;;;4.94;48.76
46412;BME280;32113;42.012;24.870;2023-02-01T04:18:02;99125.75;;;4.91;48.80
46412;BME280;32113;42.012;24.870;2023-02-01T04:20:28;99126.84;;;5.10;48.55
46412;BME280;32113;42.012;24.870;2023-02-01T04:22:53;99127.00;;;5.21;47.64
46412;BME280;32113;42.012;24.870;2023-02-01T04:25:19;99126.16;;;5.22;47.50
46412;BME280;32113;42.012;24.870;2023-02-01T04:27:44;99130.38;;;5.22;47.24
46412;BME280;32113;42.012;24.870;2023-02-01T04:30:09;99135.94;;;4.93;47.10
46412;BME280;32113;42.012;24.870;2023-02-01T04:32:36;99135.09;;;4.92;47.33
46412;BME280;32113;42.012;24.870;2023-02-01T04:35:01;99145.03;;;4.77;47.35
46412;BME280;32113;42.012;24.870;2023-02-01T04:37:26;99145.94;;;4.79;47.20
46412;BME280;32113;42.012;24.870;2023-02-01T04:39:52;99146.75;;;4.79;46.94
46412;BME280;32113;42.012;24.870;2023-02-01T04:42:17;99149.25;;;4.75;46.92
46412;BME280;32113;42.012;24.870;2023-02-01T04:44:42;99148.28;;;4.66;47.30
46412;BME280;32113;42.012;24.870;2023-02-01T04:47:08;99153.44;;;4.72;47.66
46412;BME280;32113;42.012;24.870;2023-02-01T04:49:33;99159.38;;;4.71;46.83
46412;BME280;32113;42.012;24.870;2023-02-01T04:51:58;99161.31;;;4.88;46.58
46412;BME280;32113;42.012;24.870;2023-02-01T04:54:24;99162.03;;;4.81;45.87
46412;BME280;32113;42.012;24.870;2023-02-01T04:56:49;99162.00;;;4.78;46.06
46412;BME280;32113;42.012;24.870;2023-02-01T04:59:15;99157.75;;;4.77;45.66
46412;BME280;32113;42.012;24.870;2023-02-01T05:01:40;99159.50;;;4.81;45.53
46412;BME280;32113;42.012;24.870;2023-02-01T05:04:05;99157.75;;;4.77;45.51
46412;BME280;32113;42.012;24.870;2023-02-01T05:06:30;99155.88;;;4.65;45.59
46412;BME280;32113;42.012;24.870;2023-02-01T05:08:56;99159.38;;;4.71;45.77
46412;BME280;32113;42.012;24.870;2023-02-01T05:11:21;99162.78;;;4.72;46.06
46412;BME280;32113;42.012;24.870;2023-02-01T05:14:05;99157.84;;;4.83;45.56
46412;BME280;32113;42.012;24.870;2023-02-01T05:16:30;99158.44;;;4.66;45.34
46412;BME280;32113;42.012;24.870;2023-02-01T05:18:55;99160.13;;;4.66;45.24
46412;BME280;32113;42.012;24.870;2023-02-01T05:21:21;99166.13;;;4.71;45.12
46412;BME280;32113;42.012;24.870;2023-02-01T05:23:46;99161.81;;;4.65;44.50
46412;BME280;32113;42.012;24.870;2023-02-01T05:26:30;99154.91;;;4.58;44.59
46412;BME280;32113;42.012;24.870;2023-02-01T05:28:55;99159.03;;;4.50;44.79
46412;BME280;32113;42.012;24.870;2023-02-01T05:31:21;99152.25;;;4.50;44.15
46412;BME280;32113;42.012;24.870;2023-02-01T05:33:46;99156.78;;;4.70;44.35
46412;BME280;32113;42.012;24.870;2023-02-01T05:36:12;99151.88;;;4.81;43.88
46412;BME280;32113;42.012;24.870;2023-02-01T05:38:37;99155.28;;;4.81;43.77
46412;BME280;32113;42.012;24.870;2023-02-01T05:41:02;99164.00;;;4.99;43.52
46412;BME280;32113;42.012;24.870;2023-02-01T05:43:28;99149.78;;;5.12;42.92
46412;BME280;32113;42.012;24.870;2023-02-01T05:45:53;99154.25;;;5.30;43.37
46412;BME280;32113;42.012;24.870;2023-02-01T05:48:18;99153.53;;;5.42;42.73
46412;BME280;32113;42.012;24.870;2023-02-01T05:50:44;99156.16;;;5.50;42.35
46412;BME280;32113;42.012;24.870;2023-02-01T05:53:09;99163.06;;;5.59;41.84
46412;BME280;32113;42.012;24.870;2023-02-01T05:55:36;99159.75;;;5.66;40.81
46412;BME280;32113;42.012;24.870;2023-02-01T05:58:01;99150.56;;;5.77;40.22
46412;BME280;32113;42.012;24.870;2023-02-01T06:00:26;99151.41;;;5.78;40.64
46412;BME280;32113;42.012;24.870;2023-02-01T06:02:51;99153.13;;;5.81;39.49
46412;BME280;32113;42.012;24.870;2023-02-01T06:05:17;99150.47;;;5.68;39.95
46412;BME280;32113;42.012;24.870;2023-02-01T06:07:42;99154.69;;;5.68;39.93
46412;BME280;32113;42.012;24.870;2023-02-01T06:10:08;99141.94;;;5.66;39.60
46412;BME280;32113;42.012;24.870;2023-02-01T06:12:33;99153.81;;;5.65;39.95
46412;BME280;32113;42.012;24.870;2023-02-01T06:14:58;99154.69;;;5.68;39.99
46412;BME280;32113;42.012;24.870;2023-02-01T06:17:24;99152.94;;;5.63;39.84
46412;BME280;32113;42.012;24.870;2023-02-01T06:19:49;99148.66;;;5.61;39.78
46412;BME280;32113;42.012;24.870;2023-02-01T06:22:14;99143.56;;;5.61;39.17
46412;BME280;32113;42.012;24.870;2023-02-01T06:24:40;99143.53;;;5.58;39.54
46412;BME280;32113;42.012;24.870;2023-02-01T06:27:06;99144.25;;;5.47;39.39
46412;BME280;32113;42.012;24.870;2023-02-01T06:29:31;99145.06;;;5.43;39.82
46412;BME280;32113;42.012;24.870;2023-02-01T06:31:57;99146.91;;;5.54;39.09
46412;BME280;32113;42.012;24.870;2023-02-01T06:34:22;99148.53;;;5.47;39.41
46412;BME280;32113;42.012;24.870;2023-02-01T06:36:48;99150.34;;;5.59;39.23
46412;BME280;32113;42.012;24.870;2023-02-01T06:39:13;99146.19;;;5.69;38.88
46412;BME280;32113;42.012;24.870;2023-02-01T06:41:41;99151.41;;;5.78;38.31
46412;BME280;32113;42.012;24.870;2023-02-01T06:44:07;99143.03;;;5.90;38.62
46412;BME280;32113;42.012;24.870;2023-02-01T06:46:33;99144.63;;;5.80;38.14
46412;BME280;32113;42.012;24.870;2023-02-01T06:48:58;99160.81;;;5.85;38.51
46412;BME280;32113;42.012;24.870;2023-02-01T06:51:24;99157.41;;;5.85;38.35
46412;BME280;32113;42.012;24.870;2023-02-01T06:53:50;99157.50;;;5.94;38.68
46412;BME280;32113;42.012;24.870;2023-02-01T06:56:16;99159.16;;;5.89;37.99
46412;BME280;32113;42.012;24.870;2023-02-01T06:58:41;99164.19;;;5.86;38.13
46412;BME280;32113;42.012;24.870;2023-02-01T07:01:07;99166.00;;;5.95;38.78
46412;BME280;32113;42.012;24.870;2023-02-01T07:03:32;99161.06;;;6.07;38.30
46412;BME280;32113;42.012;24.870;2023-02-01T07:05:58;99157.75;;;6.16;38.74
46412;BME280;32113;42.012;24.870;2023-02-01T07:08:27;99164.69;;;6.33;38.40
46412;BME280;32113;42.012;24.870;2023-02-01T07:10:52;99170.53;;;6.22;38.20
46412;BME280;32113;42.012;24.870;2023-02-01T07:13:18;99173.09;;;6.22;39.01
46412;BME280;32113;42.012;24.870;2023-02-01T07:15:43;99189.31;;;6.30;38.97
46412;BME280;32113;42.012;24.870;2023-02-01T07:18:08;99183.38;;;6.33;39.08
46412;BME280;32113;42.012;24.870;2023-02-01T07:20:33;99185.16;;;6.43;39.12
46412;BME280;32113;42.012;24.870;2023-02-01T07:22:59;99186.94;;;6.52;38.51
46412;BME280;32113;42.012;24.870;2023-02-01T07:25:24;99177.66;;;6.59;38.44
46412;BME280;32113;42.012;24.870;2023-02-01T07:27:49;99181.97;;;6.71;38.59
46412;BME280;32113;42.012;24.870;2023-02-01T07:30:15;99184.59;;;6.77;37.90
46412;BME280;32113;42.012;24.870;2023-02-01T07:32:40;99194.84;;;6.85;38.32
46412;BME280;32113;42.012;24.870;2023-02-01T07:35:05;99192.25;;;6.77;37.75
46412;BME280;32113;42.012;24.870;2023-02-01T07:37:31;99188.78;;;6.70;38.54
46412;BME280;32113;42.012;24.870;2023-02-01T07:39:56;99194.81;;;6.79;38.91
46412;BME280;32113;42.012;24.870;2023-02-01T07:42:21;99193.13;;;6.82;38.44
46412;BME280;32113;42.012;24.870;2023-02-01T07:44:46;99191.50;;;6.95;37.65
46412;BME280;32113;42.012;24.870;2023-02-01T07:47:12;99187.31;;;7.02;37.87
46412;BME280;32113;42.012;24.870;2023-02-01T07:49:37;99192.44;;;7.08;37.77
46412;BME280;32113;42.012;24.870;2023-02-01T07:52:02;99191.66;;;7.20;37.93
46412;BME280;32113;42.012;24.870;2023-02-01T07:54:27;99184.06;;;7.28;37.40
46412;BME280;32113;42.012;24.870;2023-02-01T07:56:53;99187.50;;;7.33;37.29
46412;BME280;32113;42.012;24.870;2023-02-01T07:59:18;99189.22;;;7.42;37.48
46412;BME280;32113;42.012;24.870;2023-02-01T08:01:43;99181.50;;;7.31;37.75
46412;BME280;32113;42.012;24.870;2023-02-01T08:04:09;99184.94;;;7.35;38.47
46412;BME280;32113;42.012;24.870;2023-02-01T08:06:35;99170.53;;;7.48;38.28
46412;BME280;32113;42.012;24.870;2023-02-01T08:09:01;99184.09;;;7.34;38.32
46412;BME280;32113;42.012;24.870;2023-02-01T08:11:26;99174.69;;;7.24;38.59
46412;BME280;32113;42.012;24.870;2023-02-01T08:13:52;99182.28;;;7.15;38.68
46412;BME280;32113;42.012;24.870;2023-02-01T08:16:18;99178.84;;;7.06;38.61
46412;BME280;32113;42.012;24.870;2023-02-01T08:18:44;99186.47;;;7.05;38.77
46412;BME280;32113;42.012;24.870;2023-02-01T08:21:10;99184.84;;;7.18;38.49
46412;BME280;32113;42.012;24.870;2023-02-01T08:23:36;99186.63;;;7.33;38.85
46412;BME280;32113;42.012;24.870;2023-02-01T08:28:30;99190.75;;;7.10;38.76
46412;BME280;32113;42.012;24.870;2023-02-01T08:30:55;99193.38;;;7.21;38.44
46412;BME280;32113;42.012;24.870;2023-02-01T08:33:20;99206.13;;;7.20;38.64
46412;BME280;32113;42.012;24.870;2023-02-01T08:35:48;99198.47;;;7.20;39.48
46412;BME280;32113;42.012;24.870;2023-02-01T08:38:14;99193.38;;;7.23;38.97
46412;BME280;32113;42.012;24.870;2023-02-01T08:40:39;99198.56;;;7.35;38.86
46412;BME280;32113;42.012;24.870;2023-02-01T08:43:06;99193.44;;;7.29;39.79
46412;BME280;32113;42.012;24.870;2023-02-01T08:45:31;99190.88;;;7.35;39.85
46412;BME280;32113;42.012;24.870;2023-02-01T08:47:57;99191.78;;;7.44;38.97
46412;BME280;32113;42.012;24.870;2023-02-01T08:50:22;99190.03;;;7.36;38.11
46412;BME280;32113;42.012;24.870;2023-02-01T08:52:48;99196.88;;;7.38;38.88
46412;BME280;32113;42.012;24.870;2023-02-01T08:55:14;99217.28;;;7.36;38.54
46412;BME280;32113;42.012;24.870;2023-02-01T08:57:39;99202.81;;;7.38;38.38
46412;BME280;32113;42.012;24.870;2023-02-01T09:00:06;99196.91;;;7.44;38.33
46412;BME280;32113;42.012;24.870;2023-02-01T09:02:33;99193.56;;;7.57;37.88
46412;BME280;32113;42.012;24.870;2023-02-01T09:04:58;99204.56;;;7.50;37.59
46412;BME280;32113;42.012;24.870;2023-02-01T09:07:23;99188.41;;;7.51;38.19
46412;BME280;32113;42.012;24.870;2023-02-01T09:09:49;99194.38;;;7.47;37.86
46412;BME280;32113;42.012;24.870;2023-02-01T09:12:14;99174.75;;;7.46;38.34
46412;BME280;32113;42.012;24.870;2023-02-01T09:14:39;99192.69;;;7.51;37.95
46412;BME280;32113;42.012;24.870;2023-02-01T09:17:04;99187.63;;;7.61;38.74
46412;BME280;32113;42.012;24.870;2023-02-01T09:19:33;99195.25;;;7.63;38.20
46412;BME280;32113;42.012;24.870;2023-02-01T09:21:58;99197.00;;;7.76;38.15
46412;BME280;32113;42.012;24.870;2023-02-01T09:24:23;99186.00;;;7.98;37.83
46412;BME280;32113;42.012;24.870;2023-02-01T09:26:49;99180.09;;;8.21;37.21
46412;BME280;32113;42.012;24.870;2023-02-01T09:29:15;99182.63;;;8.19;37.43
46412;BME280;32113;42.012;24.870;2023-02-01T09:31:41;99172.47;;;8.72;36.72
46412;BME280;32113;42.012;24.870;2023-02-01T09:34:06;99158.75;;;9.20;35.60
46412;BME280;32113;42.012;24.870;2023-02-01T09:36:32;99160.25;;;9.65;34.79
46412;BME280;32113;42.012;24.870;2023-02-01T09:38:57;99160.94;;;10.01;34.08
46412;BME280;32113;42.012;24.870;2023-02-01T09:44:03;99161.03;;;9.82;33.89
46412;BME280;32113;42.012;24.870;2023-02-01T09:46:32;99155.81;;;10.01;34.05
46412;BME280;32113;42.012;24.870;2023-02-01T09:49:03;99172.06;;;9.95;33.43
46412;BME280;32113;42.012;24.870;2023-02-01T09:51:40;99148.38;;;9.56;34.13
46412;BME280;32113;42.012;24.870;2023-02-01T09:59:32;99135.50;;;9.68;34.33
46412;BME280;32113;42.012;24.870;2023-02-01T10:02:00;99136.94;;;10.11;34.13
46412;BME280;32113;42.012;24.870;2023-02-01T10:04:26;99135.09;;;10.29;33.68
46412;BME280;32113;42.012;24.870;2023-02-01T10:17:19;99125.63;;;11.91;30.89
46412;BME280;32113;42.012;24.870;2023-02-01T10:19:57;99130.22;;;11.69;31.18
46412;BME280;32113;42.012;24.870;2023-02-01T10:24:58;99125.44;;;11.42;31.90
46412;BME280;32113;42.012;24.870;2023-02-01T10:27:32;99115.09;;;11.47;32.22
46412;BME280;32113;42.012;24.870;2023-02-01T10:29:59;99104.88;;;11.42;31.98
46412;BME280;32113;42.012;24.870;2023-02-01T10:32:32;99109.00;;;11.56;32.14
46412;BME280;32113;42.012;24.870;2023-02-01T10:35:00;99097.56;;;11.76;31.09
46412;BME280;32113;42.012;24.870;2023-02-01T10:37:31;99098.31;;;11.86;31.38
46412;BME280;32113;42.012;24.870;2023-02-01T10:39:58;99097.59;;;11.74;31.11
46412;BME280;32113;42.012;24.870;2023-02-01T10:42:25;99085.44;;;11.87;31.24
46412;BME280;32113;42.012;24.870;2023-02-01T10:44:51;99094.84;;;11.88;31.48
46412;BME280;32113;42.012;24.870;2023-02-01T10:47:18;99073.28;;;11.95;31.43
46412;BME280;32113;42.012;24.870;2023-02-01T10:49:47;99081.13;;;11.88;31.41
46412;BME280;32113;42.012;24.870;2023-02-01T10:55:48;99085.72;;;12.25;31.23
46412;BME280;32113;42.012;24.870;2023-02-01T10:57:58;99077.69;;;12.44;31.28
46412;BME280;32113;42.012;24.870;2023-02-01T11:00:24;99082.94;;;12.38;31.37
46412;BME280;32113;42.012;24.870;2023-02-01T11:02:49;99069.31;;;12.31;31.33
46412;BME280;32113;42.012;24.870;2023-02-01T11:05:15;99068.25;;;12.43;31.16
46412;BME280;32113;42.012;24.870;2023-02-01T11:07:48;99066.91;;;12.23;31.15
46412;BME280;32113;42.012;24.870;2023-02-01T11:12:58;99051.00;;;11.96;32.07
46412;BME280;32113;42.012;24.870;2023-02-01T11:15:26;99037.91;;;12.12;31.99
46412;BME280;32113;42.012;24.870;2023-02-01T11:17:51;99042.09;;;12.19;31.43
46412;BME280;32113;42.012;24.870;2023-02-01T11:20:26;99032.88;;;12.02;31.79
46412;BME280;32113;42.012;24.870;2023-02-01T11:22:59;99044.50;;;11.73;32.20
46412;BME280;32113;42.012;24.870;2023-02-01T11:25:26;99044.75;;;11.54;33.01
46412;BME280;32113;42.012;24.870;2023-02-01T11:27:53;99032.00;;;11.48;32.78
46412;BME280;32113;42.012;24.870;2023-02-01T11:30:22;99039.13;;;11.29;33.03
46412;BME280;32113;42.012;24.870;2023-02-01T11:32:52;99029.50;;;11.42;33.32
46412;BME280;32113;42.012;24.870;2023-02-01T11:35:18;99029.34;;;11.54;32.76
46412;BME280;32113;42.012;24.870;2023-02-01T11:37:44;99037.81;;;11.61;32.29
46412;BME280;32113;42.012;24.870;2023-02-01T11:42:52;99031.16;;;11.48;32.69
46412;BME280;32113;42.012;24.870;2023-02-01T11:45:20;99018.03;;;11.66;33.24
46412;BME280;32113;42.012;24.870;2023-02-01T11:47:51;99018.03;;;11.68;31.98
46412;BME280;32113;42.012;24.870;2023-02-01T11:50:18;99027.38;;;11.74;32.27
46412;BME280;32113;42.012;24.870;2023-02-01T11:58:27;99015.34;;;11.74;31.82
46412;BME280;32113;42.012;24.870;2023-02-01T12:00:59;99008.16;;;11.95;32.23
46412;BME280;32113;42.012;24.870;2023-02-01T12:11:30;99008.06;;;11.44;32.76
46412;BME280;32113;42.012;24.870;2023-02-01T12:14:01;99025.38;;;11.32;32.74
46412;BME280;32113;42.012;24.870;2023-02-01T12:16:31;99017.56;;;11.39;32.33
46412;BME280;32113;42.012;24.870;2023-02-01T12:29:21;99003.41;;;11.70;31.89
46412;BME280;32113;42.012;24.870;2023-02-01T12:34:34;98996.69;;;11.61;32.04
46412;BME280;32113;42.012;24.870;2023-02-01T12:39:39;98987.94;;;11.73;31.63
46412;BME280;32113;42.012;24.870;2023-02-01T12:42:13;98989.13;;;11.52;32.02
46412;BME280;32113;42.012;24.870;2023-02-01T12:44:43;98987.22;;;11.63;31.70
46412;BME280;32113;42.012;24.870;2023-02-01T12:47:20;98989.16;;;11.50;31.73
46412;BME280;32113;42.012;24.870;2023-02-01T12:50:03;98986.66;;;11.47;31.02
46412;BME280;32113;42.012;24.870;2023-02-01T12:52:35;98980.78;;;11.39;32.12
46412;BME280;32113;42.012;24.870;2023-02-01T12:55:24;98985.75;;;11.50;31.38
46412;BME280;32113;42.012;24.870;2023-02-01T12:57:56;98991.94;;;11.36;31.95
46412;BME280;32113;42.012;24.870;2023-02-01T13:05:22;98993.72;;;11.31;32.15
46412;BME280;32113;42.012;24.870;2023-02-01T13:07:54;99004.66;;;11.44;32.38
46412;BME280;32113;42.012;24.870;2023-02-01T13:12:49;98998.97;;;11.80;31.79
46412;BME280;32113;42.012;24.870;2023-02-01T13:17:46;99002.19;;;11.93;31.49
46412;BME280;32113;42.012;24.870;2023-02-01T13:20:58;99008.31;;;11.87;31.81
46412;BME280;32113;42.012;24.870;2023-02-01T13:23:04;99005.88;;;11.78;32.31
46412;BME280;32113;42.012;24.870;2023-02-01T13:28:28;99007.06;;;11.56;33.09
46412;BME280;32113;42.012;24.870;2023-02-01T13:33:26;99014.28;;;11.31;32.96
46412;BME280;32113;42.012;24.870;2023-02-01T13:44:01;99020.69;;;10.97;33.86
46412;BME280;32113;42.012;24.870;2023-02-01T13:46:28;99020.91;;;10.80;33.41
46412;BME280;32113;42.012;24.870;2023-02-01T13:48:55;99019.06;;;10.90;33.83
46412;BME280;32113;42.012;24.870;2023-02-01T13:51:56;99014.91;;;10.80;32.62
46412;BME280;32113;42.012;24.870;2023-02-01T13:56:51;99014.19;;;10.68;32.09
46412;BME280;32113;42.012;24.870;2023-02-01T13:59:36;99016.69;;;10.74;32.15
46412;BME280;32113;42.012;24.870;2023-02-01T14:23:42;99043.13;;;10.83;31.76
46412;BME280;32113;42.012;24.870;2023-02-01T14:26:13;99041.47;;;10.75;31.75
46412;BME280;32113;42.012;24.870;2023-02-01T14:28:40;99043.34;;;10.59;31.54
46412;BME280;32113;42.012;24.870;2023-02-01T14:31:14;99047.75;;;10.48;31.59
46412;BME280;32113;42.012;24.870;2023-02-01T14:33:41;99040.28;;;10.24;31.64
46412;BME280;32113;42.012;24.870;2023-02-01T14:36:09;99037.81;;;10.12;32.26
46412;BME280;32113;42.012;24.870;2023-02-01T14:38:37;99020.66;;;10.20;32.33
46412;BME280;32113;42.012;24.870;2023-02-01T14:41:36;99030.84;;;10.25;32.29
46412;BME280;32113;42.012;24.870;2023-02-01T14:49:10;99016.16;;;10.41;31.80
46412;BME280;32113;42.012;24.870;2023-02-01T14:51:35;99022.41;;;10.14;32.33
46412;BME280;32113;42.012;24.870;2023-02-01T14:54:01;99020.66;;;10.17;32.57
46412;BME280;32113;42.012;24.870;2023-02-01T14:56:27;99025.88;;;10.09;32.59
46412;BME280;32113;42.012;24.870;2023-02-01T14:58:57;99021.56;;;10.10;32.51
46412;BME280;32113;42.012;24.870;2023-02-01T15:01:30;99032.69;;;10.12;32.82
46412;BME280;32113;42.012;24.870;2023-02-01T15:08:46;99041.31;;;10.00;32.94
46412;BME280;32113;42.012;24.870;2023-02-01T15:11:13;99037.09;;;9.93;33.10
46412;BME280;32113;42.012;24.870;2023-02-01T15:13:39;99042.22;;;9.94;33.34
46412;BME280;32113;42.012;24.870;2023-02-01T15:16:12;99045.59;;;9.99;32.96
46412;BME280;32113;42.012;24.870;2023-02-01T15:18:37;99049.09;;;9.89;32.91
46412;BME280;32113;42.012;24.870;2023-02-01T15:21:03;99054.22;;;9.91;33.15
46412;BME280;32113;42.012;24.870;2023-02-01T15:23:29;99054.19;;;9.92;33.47
46412;BME280;32113;42.012;24.870;2023-02-01T15:25:54;99048.19;;;9.95;33.48
46412;BME280;32113;42.012;24.870;2023-02-01T15:28:20;99053.19;;;10.09;33.35